Time;durP1;ratioP1;P1;durP2;ratioP2;P2;SDS_P1;SDS_P2;PMS_P1;PMS_P2;Temp;Humidity;BMP_temperature;BMP_pressure;BME280_temperature;BME280_humidity;BME280_pressure;Samples;Min_cycle;Max_cycle;Signal;HPM_P1;HPM_P2
2023/09/22 00:00:55;;;;;;;9.20;4.60;;;22.70;83.50;;;;;;10750036;33;20044;-75
2023/09/22 00:06:57;;;;;;;9.40;4.93;;;22.70;83.50;;;;;;10751590;33;20382;-76
2023/09/22 00:13:00;;;;;;;9.45;3.60;;;22.60;83.40;;;;;;10749869;33;20036;-75
2023/09/22 00:19:05;;;;;;;5.85;4.05;;;22.60;83.50;;;;;;10750680;33;20071;-75
2023/09/22 00:25:09;;;;;;;5.22;3.58;;;22.60;83.40;;;;;;10750785;33;20393;-75
2023/09/22 00:31:11;;;;;;;8.15;5.50;;;22.60;83.40;;;;;;10751538;33;20044;-75
2023/09/22 00:37:13;;;;;;;4.97;3.85;;;22.60;83.40;;;;;;10750250;33;20029;-75
2023/09/22 00:43:17;;;;;;;7.03;4.25;;;22.60;83.30;;;;;;10751130;33;20067;-75
2023/09/22 00:49:19;;;;;;;8.05;4.87;;;22.60;83.40;;;;;;10750349;33;20029;-75
2023/09/22 00:55:22;;;;;;;11.85;6.60;;;22.50;83.50;;;;;;10749903;33;20043;-71
2023/09/22 01:01:24;;;;;;;6.72;4.05;;;22.50;83.70;;;;;;10751040;33;20440;-71
2023/09/22 01:07:27;;;;;;;10.75;4.78;;;22.50;83.60;;;;;;10756519;33;20370;-75
2023/09/22 01:13:30;;;;;;;9.15;4.57;;;22.40;83.60;;;;;;10756967;33;20029;-75
2023/09/22 01:19:33;;;;;;;7.05;4.28;;;22.40;83.90;;;;;;10755564;33;20012;-75
2023/09/22 01:25:36;;;;;;;7.45;3.42;;;22.30;83.90;;;;;;10756006;33;20020;-75
2023/09/22 01:31:38;;;;;;;12.93;6.32;;;22.30;83.90;;;;;;10755820;33;20051;-75
2023/09/22 01:38:00;;;;;;;7.68;3.25;;;22.30;84.00;;;;;;10755024;33;20025;-75
2023/09/22 01:44:02;;;;;;;4.85;3.37;;;22.30;84.10;;;;;;10751188;33;20056;-75
2023/09/22 01:50:07;;;;;;;7.45;4.45;;;22.30;84.30;;;;;;10755177;33;20342;-75
2023/09/22 01:56:09;;;;;;;7.30;5.10;;;22.20;84.30;;;;;;10755800;33;20047;-75
2023/09/22 02:02:12;;;;;;;8.68;5.57;;;22.20;84.20;;;;;;10750324;33;20033;-75
2023/09/22 02:08:14;;;;;;;6.30;4.28;;;22.20;84.10;;;;;;10753246;33;20037;-75
2023/09/22 02:14:16;;;;;;;6.95;4.00;;;22.10;84.10;;;;;;10754423;33;20047;-75
2023/09/22 02:20:18;;;;;;;5.82;3.40;;;22.10;84.20;;;;;;10753750;33;20021;-75
2023/09/22 02:26:20;;;;;;;9.02;4.10;;;22.10;84.40;;;;;;10754818;33;20442;-75
2023/09/22 02:32:26;;;;;;;7.97;5.37;;;22.10;84.30;;;;;;10753526;33;20017;-76
2023/09/22 02:38:29;;;;;;;6.40;3.85;;;22.10;84.40;;;;;;10753321;33;20050;-75
2023/09/22 02:44:31;;;;;;;8.40;5.65;;;22.10;84.40;;;;;;10753682;33;20434;-75
2023/09/22 02:50:33;;;;;;;7.87;5.70;;;22.10;84.40;;;;;;10753099;33;20407;-75
2023/09/22 02:56:37;;;;;;;6.57;3.25;;;22.00;84.50;;;;;;10751792;33;20033;-75
2023/09/22 03:02:39;;;;;;;13.20;5.55;;;22.00;84.50;;;;;;10752304;33;20051;-75
2023/09/22 03:08:41;;;;;;;9.20;5.90;;;22.00;84.60;;;;;;10752615;33;20021;-75
2023/09/22 03:14:48;;;;;;;7.70;5.10;;;22.00;84.70;;;;;;10752278;33;20021;-75
2023/09/22 03:20:50;;;;;;;8.18;4.70;;;21.90;84.90;;;;;;10752053;33;20346;-75
2023/09/22 03:26:52;;;;;;;13.98;4.78;;;21.90;84.80;;;;;;10750433;33;20215;-75
2023/09/22 03:32:56;;;;;;;6.87;4.15;;;22.00;84.80;;;;;;10752982;33;20017;-75
2023/09/22 03:38:58;;;;;;;7.30;5.50;;;22.00;84.80;;;;;;10751814;33;20055;-74
2023/09/22 03:45:00;;;;;;;12.40;6.00;;;21.90;85.00;;;;;;10748955;33;20029;-75
2023/09/22 03:51:04;;;;;;;9.07;5.32;;;21.80;85.20;;;;;;10750422;33;20021;-75
2023/09/22 03:57:06;;;;;;;8.95;5.78;;;21.80;85.40;;;;;;10751291;33;20017;-75
2023/09/22 04:03:09;;;;;;;7.10;3.60;;;21.70;85.70;;;;;;10751038;33;20339;-75
2023/09/22 04:09:11;;;;;;;15.63;6.62;;;21.60;85.90;;;;;;10750010;33;20071;-75
2023/09/22 04:15:15;;;;;;;7.40;4.22;;;21.50;86.10;;;;;;10751534;33;20339;-75
2023/09/22 04:21:21;;;;;;;6.37;3.45;;;21.50;86.10;;;;;;10750764;33;20066;-75
2023/09/22 04:27:28;;;;;;;8.52;4.82;;;21.50;86.30;;;;;;10751733;33;20017;-75
2023/09/22 04:33:30;;;;;;;7.22;4.95;;;21.50;86.50;;;;;;10750455;33;20021;-75
2023/09/22 04:39:33;;;;;;;7.90;6.47;;;21.50;86.40;;;;;;10752770;33;20036;-75
2023/09/22 04:45:43;;;;;;;6.97;4.10;;;21.50;86.30;;;;;;10757050;33;20020;-75
2023/09/22 04:51:46;;;;;;;8.65;4.40;;;21.60;86.20;;;;;;10756418;33;20020;-75
2023/09/22 04:57:48;;;;;;;7.30;4.00;;;21.60;86.30;;;;;;10756171;33;20057;-75
2023/09/22 05:03:50;;;;;;;7.40;4.82;;;21.60;86.40;;;;;;10756019;33;20028;-75
2023/09/22 05:09:53;;;;;;;8.70;5.62;;;21.50;86.40;;;;;;10743709;32;20032;-75
2023/09/22 05:15:55;;;;;;;4.97;3.05;;;21.50;86.60;;;;;;10756254;33;20437;-75
2023/09/22 05:21:57;;;;;;;7.47;3.70;;;21.50;86.50;;;;;;10754479;33;20055;-75
2023/09/22 05:27:59;;;;;;;5.90;3.62;;;21.60;86.50;;;;;;10755973;33;20334;-75
2023/09/22 05:34:01;;;;;;;4.03;2.95;;;21.60;86.50;;;;;;10753295;33;20021;-75
2023/09/22 05:40:10;;;;;;;5.00;2.55;;;21.60;86.60;;;;;;10747979;33;20037;-75
2023/09/22 05:46:12;;;;;;;5.53;3.97;;;21.60;86.70;;;;;;10718759;32;20033;-75
2023/09/22 05:52:15;;;;;;;4.55;3.10;;;21.60;86.60;;;;;;10717837;33;20095;-75
2023/09/22 05:58:17;;;;;;;6.50;3.90;;;21.70;86.60;;;;;;10717976;33;20021;-75
2023/09/22 06:04:37;;;;;;;8.40;5.65;;;21.70;86.80;;;;;;10741212;33;20365;-75
2023/09/22 06:10:40;;;;;;;7.53;4.82;;;21.80;86.50;;;;;;10760204;32;20402;-75
2023/09/22 06:16:42;;;;;;;9.93;5.65;;;21.80;86.50;;;;;;10753284;33;20024;-75
2023/09/22 06:22:49;;;;;;;8.07;5.22;;;21.70;86.80;;;;;;10754886;33;20043;-75
2023/09/22 06:28:52;;;;;;;8.47;4.40;;;21.70;86.80;;;;;;10752548;33;20041;-75
2023/09/22 06:34:55;;;;;;;11.18;5.15;;;21.60;87.00;;;;;;10753532;33;20082;-74
2023/09/22 06:40:58;;;;;;;7.65;5.15;;;21.60;87.30;;;;;;10753642;33;20400;-75
2023/09/22 06:47:01;;;;;;;8.07;4.93;;;21.60;87.30;;;;;;10288898;27;15673869;-74
2023/09/22 06:53:04;;;;;;;9.25;5.30;;;21.70;87.30;;;;;;10753262;33;20043;-76
2023/09/22 06:59:07;;;;;;;11.43;5.07;;;21.80;87.20;;;;;;10748547;33;20029;-74
2023/09/22 07:05:10;;;;;;;10.85;7.45;;;21.90;87.00;;;;;;10753122;33;20020;-74
2023/09/22 07:11:13;;;;;;;9.52;4.70;;;22.00;87.10;;;;;;10753769;33;20441;-75
2023/09/22 07:17:15;;;;;;;10.98;5.12;;;22.00;87.00;;;;;;10752970;33;20020;-75
2023/09/22 07:23:17;;;;;;;8.40;4.82;;;22.10;86.90;;;;;;10752491;33;20055;-75
2023/09/22 07:29:20;;;;;;;7.80;3.92;;;22.10;87.00;;;;;;10751846;33;20032;-76
2023/09/22 07:35:24;;;;;;;8.23;4.43;;;22.20;86.90;;;;;;10751916;33;20044;-75
2023/09/22 07:41:26;;;;;;;10.35;4.12;;;22.30;86.90;;;;;;10751640;33;20051;-76
2023/09/22 07:47:28;;;;;;;8.00;5.25;;;22.20;86.90;;;;;;10752238;33;20060;-76
2023/09/22 07:53:31;;;;;;;6.68;4.37;;;22.30;87.00;;;;;;10749875;33;20327;-76
2023/09/22 08:00:10;;;;;;;8.63;3.92;;;22.30;87.10;;;;;;10749561;33;20055;-77
2023/09/22 08:06:38;;;;;;;4.65;2.45;;;22.30;87.10;;;;;;10813739;33;20343;-77
2023/09/22 08:12:42;;;;;;;8.82;5.00;;;22.40;87.10;;;;;;10830183;32;20054;-76
2023/09/22 08:18:44;;;;;;;7.45;4.95;;;22.40;87.10;;;;;;10833706;32;20023;-75
2023/09/22 08:24:46;;;;;;;6.32;3.65;;;22.30;87.10;;;;;;10833872;32;20335;-75
2023/09/22 08:30:49;;;;;;;8.50;3.45;;;22.30;87.10;;;;;;10832200;32;20333;-76
2023/09/22 08:36:59;;;;;;;6.18;3.58;;;22.30;86.90;;;;;;10833329;32;20418;-76
2023/09/22 08:43:02;;;;;;;8.88;3.58;;;22.30;87.00;;;;;;10770214;32;20051;-75
2023/09/22 08:49:04;;;;;;;10.55;3.58;;;22.40;86.90;;;;;;10756489;33;20327;-75
2023/09/22 08:55:14;;;;;;;10.40;3.90;;;22.60;86.70;;;;;;10757948;33;20160;-76
2023/09/22 09:01:17;;;;;;;6.93;3.87;;;22.80;86.50;;;;;;10756428;33;20005;-75
2023/09/22 09:07:22;;;;;;;9.52;4.25;;;22.80;86.30;;;;;;10755382;33;20024;-76
2023/09/22 09:13:27;;;;;;;9.13;3.15;;;22.80;86.40;;;;;;10750792;33;20437;-76
2023/09/22 09:19:30;;;;;;;6.57;4.40;;;22.80;86.40;;;;;;10753989;33;20051;-76
2023/09/22 09:25:39;;;;;;;15.43;4.15;;;22.80;86.50;;;;;;10724048;33;20020;-76
2023/09/22 09:31:46;;;;;;;6.60;3.62;;;22.70;86.50;;;;;;10719786;33;20391;-76
2023/09/22 09:38:03;;;;;;;6.40;3.33;;;22.70;86.60;;;;;;10718538;33;20075;-75
2023/09/22 09:44:07;;;;;;;15.27;4.40;;;22.70;86.60;;;;;;10705257;33;20036;-75
2023/09/22 09:50:10;;;;;;;8.65;4.35;;;22.60;86.70;;;;;;10718577;33;20017;-74
2023/09/22 09:56:14;;;;;;;6.00;3.65;;;22.50;86.70;;;;;;10717839;33;20022;-74
2023/09/22 10:02:16;;;;;;;6.37;3.83;;;22.60;86.60;;;;;;10717876;33;20029;-76
2023/09/22 10:08:22;;;;;;;5.78;3.42;;;22.60;86.70;;;;;;10717298;33;20056;-75
2023/09/22 10:14:53;;;;;;;6.25;4.55;;;22.50;86.60;;;;;;10717701;33;20029;-75
2023/09/22 10:20:55;;;;;;;6.18;3.20;;;22.50;86.80;;;;;;10715933;33;20067;-75
2023/09/22 10:27:07;;;;;;;4.85;3.00;;;22.50;86.70;;;;;;10749576;33;20059;-75
2023/09/22 10:33:15;;;;;;;8.60;4.22;;;22.50;86.50;;;;;;10753614;33;20017;-70
2023/09/22 10:39:17;;;;;;;6.87;4.03;;;22.50;86.70;;;;;;10753402;33;20047;-70
2023/09/22 10:45:25;;;;;;;7.72;3.53;;;22.50;86.70;;;;;;10753185;33;20016;-69
2023/09/22 10:51:46;;;;;;;8.17;5.00;;;22.60;86.60;;;;;;10751641;33;20032;-68
2023/09/22 10:57:49;;;;;;;8.32;3.40;;;22.70;86.50;;;;;;10753381;33;20343;-69
2023/09/22 11:03:53;;;;;;;8.98;4.07;;;22.60;86.70;;;;;;10753539;33;20016;-69
2023/09/22 11:09:56;;;;;;;7.12;4.65;;;22.60;86.60;;;;;;10751939;33;20017;-68
2023/09/22 11:16:01;;;;;;;6.97;3.22;;;22.60;86.70;;;;;;10751802;33;20393;-69
2023/09/22 11:22:04;;;;;;;6.07;4.07;;;22.60;86.70;;;;;;10751795;33;20055;-68
2023/09/22 11:28:06;;;;;;;11.88;5.60;;;22.60;86.90;;;;;;10753137;33;20021;-69
2023/09/22 11:34:08;;;;;;;12.88;5.15;;;22.70;86.90;;;;;;10752304;33;20059;-69
2023/09/22 11:40:14;;;;;;;12.80;6.07;;;22.80;87.00;;;;;;10752241;33;20013;-69
2023/09/22 11:46:25;;;;;;;7.40;4.75;;;22.80;87.00;;;;;;10748224;32;20055;-69
2023/09/22 11:52:30;;;;;;;8.75;5.32;;;22.90;86.90;;;;;;10751379;33;20035;-69
2023/09/22 11:59:19;;;;;;;9.07;6.10;;;22.80;86.90;;;;;;10749986;33;20036;-70
2023/09/22 12:05:21;;;;;;;7.20;4.90;;;22.90;86.80;;;;;;10749874;33;20040;-70
2023/09/22 12:11:24;;;;;;;9.65;5.07;;;22.90;86.90;;;;;;10752186;33;20009;-70
2023/09/22 12:17:26;;;;;;;11.00;5.25;;;22.80;86.90;;;;;;10752073;33;20012;-70
2023/09/22 12:23:28;;;;;;;8.57;4.70;;;22.90;86.90;;;;;;10748653;33;20109;-69
2023/09/22 12:29:31;;;;;;;9.60;5.07;;;22.90;87.00;;;;;;10747326;33;20399;-70
2023/09/22 12:35:33;;;;;;;6.43;3.87;;;22.90;87.00;;;;;;10750472;33;20021;-71
2023/09/22 12:41:35;;;;;;;8.15;4.45;;;22.90;86.90;;;;;;10762253;33;20293;-70
2023/09/22 12:47:37;;;;;;;5.03;3.72;;;22.80;87.00;;;;;;10750949;33;20016;-68
2023/09/22 12:53:59;;;;;;;12.32;5.50;;;22.80;87.00;;;;;;10749066;33;20367;-69
2023/09/22 13:00:04;;;;;;;9.85;5.87;;;22.80;87.10;;;;;;10754126;33;20020;-70
2023/09/22 13:06:07;;;;;;;5.97;3.50;;;22.80;87.30;;;;;;10756067;33;20032;-68
2023/09/22 13:12:09;;;;;;;12.35;4.22;;;22.80;87.30;;;;;;10767204;33;20053;-69
2023/09/22 13:18:17;;;;;;;11.45;5.20;;;22.80;87.30;;;;;;10756370;33;20025;-69
2023/09/22 13:24:19;;;;;;;9.63;5.57;;;22.80;87.20;;;;;;10754139;33;20016;-69
2023/09/22 13:30:22;;;;;;;8.23;4.22;;;22.80;87.20;;;;;;10753681;33;20078;-69
2023/09/22 13:36:24;;;;;;;14.25;6.50;;;22.90;87.10;;;;;;10755797;33;20039;-70
2023/09/22 13:42:26;;;;;;;9.63;5.75;;;22.90;87.10;;;;;;10755069;33;20047;-70
2023/09/22 13:48:28;;;;;;;10.38;4.50;;;22.90;86.90;;;;;;10763579;33;20024;-70
2023/09/22 13:54:30;;;;;;;4.85;3.22;;;23.00;86.80;;;;;;10752483;33;20028;-70
2023/09/22 14:00:32;;;;;;;9.98;4.97;;;23.10;86.70;;;;;;10753267;33;20037;-70
2023/09/22 14:06:34;;;;;;;8.05;4.50;;;23.20;86.50;;;;;;10749173;33;20044;-71
2023/09/22 14:12:37;;;;;;;6.50;2.78;;;23.30;86.40;;;;;;10752008;33;20021;-71
2023/09/22 14:18:39;;;;;;;9.40;5.20;;;23.40;86.10;;;;;;10753740;33;20090;-72
2023/09/22 14:24:43;;;;;;;8.45;4.82;;;23.40;86.00;;;;;;10753471;33;20025;-70
2023/09/22 14:30:45;;;;;;;6.75;4.75;;;23.30;86.00;;;;;;10753924;33;20315;-70
2023/09/22 14:36:48;;;;;;;10.93;4.80;;;23.30;86.00;;;;;;10754009;33;20335;-71
2023/09/22 14:42:56;;;;;;;9.88;5.00;;;23.30;86.00;;;;;;10740918;32;20324;-71
2023/09/22 14:48:58;;;;;;;7.03;4.90;;;23.40;85.90;;;;;;10737687;27;20037;-71
2023/09/22 14:55:00;;;;;;;9.07;5.43;;;23.50;85.80;;;;;;10716871;33;20025;-71
2023/09/22 15:01:09;;;;;;;7.97;5.03;;;23.50;85.60;;;;;;10715134;33;20029;-71
2023/09/22 15:07:12;;;;;;;8.30;5.15;;;23.50;85.60;;;;;;10716990;33;20013;-71
2023/09/22 15:13:15;;;;;;;7.12;5.07;;;23.50;85.60;;;;;;10716775;33;20339;-71
2023/09/22 15:19:18;;;;;;;10.98;6.68;;;23.40;85.60;;;;;;10727918;33;20040;-71
2023/09/22 15:25:20;;;;;;;9.13;5.35;;;23.40;85.60;;;;;;10727996;33;20454;-71
2023/09/22 15:31:32;;;;;;;10.25;5.07;;;23.30;85.70;;;;;;10751740;32;20374;-71
2023/09/22 15:37:34;;;;;;;10.45;5.32;;;23.30;85.80;;;;;;10752414;33;20047;-71
2023/09/22 15:43:37;;;;;;;8.15;4.35;;;23.30;85.70;;;;;;10751499;33;20039;-71
2023/09/22 15:49:39;;;;;;;13.40;5.78;;;23.40;85.70;;;;;;10751594;33;20021;-72
2023/09/22 15:55:42;;;;;;;10.35;6.28;;;23.40;85.60;;;;;;10746232;33;20044;-72
2023/09/22 16:01:44;;;;;;;6.57;4.18;;;23.40;85.60;;;;;;10715680;33;20024;-71
2023/09/22 16:07:47;;;;;;;8.73;4.35;;;23.40;85.60;;;;;;10715555;33;20343;-71
2023/09/22 16:13:49;;;;;;;5.85;4.07;;;23.40;85.50;;;;;;10714807;33;20057;-71
2023/09/22 16:19:54;;;;;;;6.93;4.87;;;23.40;85.50;;;;;;10714643;33;20012;-71
2023/09/22 16:26:10;;;;;;;11.93;4.87;;;23.40;85.50;;;;;;10713608;33;20047;-71
2023/09/22 16:32:13;;;;;;;7.90;4.00;;;23.40;85.50;;;;;;10715031;33;20017;-71
2023/09/22 16:38:16;;;;;;;8.75;4.37;;;23.40;85.50;;;;;;10721720;33;20395;-70
2023/09/22 16:44:18;;;;;;;10.52;3.85;;;23.40;85.40;;;;;;10719921;33;20051;-70
2023/09/22 16:50:20;;;;;;;5.97;2.95;;;23.30;85.50;;;;;;10720155;33;20075;-70
2023/09/22 16:56:24;;;;;;;5.57;3.30;;;23.30;85.50;;;;;;10744355;33;20437;-70
2023/09/22 17:02:27;;;;;;;6.53;2.92;;;23.20;85.60;;;;;;10749405;33;20097;-70
2023/09/22 17:08:32;;;;;;;10.02;3.10;;;23.20;85.60;;;;;;10719667;33;20013;-70
2023/09/22 17:14:35;;;;;;;4.25;2.40;;;23.20;85.60;;;;;;10719450;33;20025;-70
2023/09/22 17:20:37;;;;;;;9.52;3.50;;;23.10;85.50;;;;;;10719050;33;20017;-70
2023/09/22 17:26:40;;;;;;;3.45;2.12;;;23.00;85.60;;;;;;10719536;33;20057;-75
2023/09/22 17:32:43;;;;;;;5.37;3.10;;;23.00;85.60;;;;;;10718766;33;20013;-75
2023/09/22 17:38:46;;;;;;;5.62;2.87;;;22.90;85.70;;;;;;10719165;33;20013;-75
2023/09/22 17:44:49;;;;;;;5.22;2.50;;;22.80;85.80;;;;;;10717658;33;20025;-75
2023/09/22 17:50:52;;;;;;;11.73;3.08;;;22.80;85.90;;;;;;10718317;33;20044;-74
2023/09/22 17:57:03;;;;;;;4.57;2.65;;;22.70;85.80;;;;;;10717655;33;20017;-75
2023/09/22 18:03:07;;;;;;;4.15;2.47;;;22.60;85.80;;;;;;10714861;33;20052;-75
2023/09/22 18:09:10;;;;;;;5.55;3.28;;;22.50;85.90;;;;;;10717469;33;20021;-76
2023/09/22 18:15:13;;;;;;;3.78;2.75;;;22.50;85.90;;;;;;10710075;33;20403;-76
2023/09/22 18:21:15;;;;;;;7.53;3.08;;;22.50;85.80;;;;;;10702186;33;20029;-76
2023/09/22 18:27:17;;;;;;;5.87;3.37;;;22.50;85.80;;;;;;10717033;33;20024;-76
2023/09/22 18:33:19;;;;;;;3.37;2.25;;;22.50;85.80;;;;;;10717255;33;20356;-76
2023/09/22 18:39:22;;;;;;;3.40;2.20;;;22.40;85.80;;;;;;10717260;33;20425;-76
2023/09/22 18:45:24;;;;;;;6.25;2.70;;;22.50;85.70;;;;;;10717188;33;20399;-76
2023/09/22 18:51:27;;;;;;;8.75;2.58;;;22.40;85.60;;;;;;10715344;33;20055;-76
2023/09/22 18:57:29;;;;;;;8.15;2.90;;;22.30;85.70;;;;;;10717289;33;20017;-76
2023/09/22 19:03:32;;;;;;;3.22;2.22;;;22.30;85.70;;;;;;10716081;33;20028;-76
2023/09/22 19:09:35;;;;;;;4.68;2.45;;;22.30;85.70;;;;;;10710453;33;20025;-76
2023/09/22 19:15:42;;;;;;;6.10;2.65;;;22.30;85.70;;;;;;10710407;33;20037;-76
2023/09/22 19:22:24;;;;;;;8.67;4.03;;;22.20;85.70;;;;;;10710970;33;20021;-76
2023/09/22 19:28:27;;;;;;;6.10;3.25;;;22.30;85.60;;;;;;10857000;32;20040;-76
2023/09/22 19:34:30;;;;;;;5.22;2.95;;;22.30;85.60;;;;;;10857519;32;20062;-76
2023/09/22 19:40:32;;;;;;;5.95;2.75;;;22.30;85.60;;;;;;10857299;32;20383;-76
2023/09/22 19:46:34;;;;;;;9.10;4.55;;;22.20;85.60;;;;;;10857394;32;20067;-76
2023/09/22 19:52:49;;;;;;;4.78;3.05;;;22.20;85.50;;;;;;10858596;32;20491;-76
2023/09/22 19:58:53;;;;;;;3.28;2.28;;;22.10;85.60;;;;;;10837685;32;20055;-76
2023/09/22 20:04:55;;;;;;;4.28;2.95;;;22.10;85.60;;;;;;10711332;32;20037;-76
2023/09/22 20:11:04;;;;;;;4.30;2.55;;;22.10;85.60;;;;;;10678389;33;20028;-71
2023/09/22 20:17:07;;;;;;;7.30;3.75;;;22.00;85.60;;;;;;10678821;33;20296;-71
2023/09/22 20:23:11;;;;;;;7.00;3.53;;;22.00;85.60;;;;;;10678390;33;20029;-71
2023/09/22 20:29:13;;;;;;;7.78;3.72;;;22.00;85.70;;;;;;10678606;33;20048;-71
2023/09/22 20:35:29;;;;;;;5.12;3.03;;;22.00;85.60;;;;;;10678421;33;20392;-71
2023/09/22 20:41:32;;;;;;;5.72;3.15;;;22.00;85.60;;;;;;10677560;33;20052;-76
2023/09/22 20:47:44;;;;;;;3.70;2.20;;;22.10;85.70;;;;;;10673965;33;20421;-76
2023/09/22 20:53:46;;;;;;;8.00;4.18;;;22.10;85.70;;;;;;10675988;33;20033;-76
2023/09/22 20:59:49;;;;;;;9.35;3.55;;;22.10;85.80;;;;;;10677790;33;20388;-76
2023/09/22 21:05:51;;;;;;;7.68;4.28;;;22.00;85.70;;;;;;10677303;33;20339;-75
2023/09/22 21:11:56;;;;;;;7.32;3.15;;;22.10;85.70;;;;;;10675727;33;20034;-75
2023/09/22 21:17:58;;;;;;;8.48;3.08;;;22.00;85.70;;;;;;10677170;33;20021;-75
2023/09/22 21:24:21;;;;;;;5.70;3.28;;;22.00;85.80;;;;;;10679082;33;20079;-75
2023/09/22 21:30:24;;;;;;;6.65;3.45;;;21.90;85.80;;;;;;10682938;33;20043;-76
2023/09/22 21:36:26;;;;;;;5.07;3.28;;;21.90;86.00;;;;;;10682689;33;20052;-75
2023/09/22 21:42:30;;;;;;;6.87;3.60;;;21.90;86.00;;;;;;10683404;33;20344;-75
2023/09/22 21:48:33;;;;;;;10.02;4.70;;;21.90;86.00;;;;;;10682233;33;20025;-75
2023/09/22 21:54:35;;;;;;;6.45;3.75;;;21.90;86.00;;;;;;10682318;33;20012;-76
2023/09/22 22:00:42;;;;;;;7.28;3.35;;;21.80;86.00;;;;;;10682300;33;20052;-76
2023/09/22 22:06:47;;;;;;;3.75;2.10;;;21.80;86.00;;;;;;10680366;33;20045;-76
2023/09/22 22:13:38;;;;;;;8.70;3.90;;;21.60;86.00;;;;;;10643652;33;20108;-75
2023/09/22 22:19:40;;;;;;;7.47;4.22;;;21.60;86.20;;;;;;10643083;33;20057;-76
2023/09/22 22:25:52;;;;;;;9.55;3.58;;;21.50;86.10;;;;;;10642651;33;20060;-75
2023/09/22 22:32:20;;;;;;;6.32;3.28;;;21.60;86.10;;;;;;10642394;33;20056;-76
2023/09/22 22:38:22;;;;;;;6.70;4.47;;;21.60;86.20;;;;;;10640824;33;20360;-75
2023/09/22 22:44:24;;;;;;;7.70;5.25;;;21.60;86.20;;;;;;10642186;33;20033;-75
2023/09/22 22:50:28;;;;;;;8.85;5.45;;;21.60;86.10;;;;;;10669783;27;20375;-75
2023/09/22 22:56:32;;;;;;;7.43;5.60;;;21.50;86.20;;;;;;10680744;33;20075;-75
2023/09/22 23:02:34;;;;;;;6.60;4.82;;;21.50;86.20;;;;;;10680727;33;20039;-75
2023/09/22 23:08:36;;;;;;;8.50;4.47;;;21.60;86.30;;;;;;10679394;33;20052;-75
2023/09/22 23:14:38;;;;;;;7.40;4.72;;;21.50;86.20;;;;;;10680732;33;20446;-75
2023/09/22 23:20:41;;;;;;;9.35;5.57;;;21.50;86.20;;;;;;10680633;33;20026;-75
2023/09/22 23:26:43;;;;;;;9.75;6.35;;;21.50;86.10;;;;;;10679535;33;20037;-75
2023/09/22 23:33:02;;;;;;;10.60;5.13;;;21.50;86.20;;;;;;10681017;33;20450;-75
2023/09/22 23:39:08;;;;;;;7.85;3.58;;;21.40;86.20;;;;;;10680603;33;20399;-75
2023/09/22 23:45:10;;;;;;;8.55;5.60;;;21.40;86.20;;;;;;10678745;33;20029;-76
2023/09/22 23:51:13;;;;;;;6.95;4.95;;;21.40;86.30;;;;;;10678319;33;20025;-75
2023/09/22 23:57:18;;;;;;;14.93;6.70;;;21.30;86.20;;;;;;10680216;33;20026;-75
